createdAt,value
2016-11-21T00:00:32.883Z,55.08
2016-11-21T00:01:32.917Z,55.27
2016-11-21T00:02:32.941Z,55.66
2016-11-21T00:03:32.662Z,54.88
2016-11-21T00:04:32.698Z,55.27
2016-11-21T00:05:33.023Z,55.27
2016-11-21T00:06:32.745Z,54.98
2016-11-21T00:07:33.077Z,55.18
2016-11-21T00:08:33.113Z,54.98
2016-11-21T00:09:33.141Z,54.98
2016-11-21T00:10:33.162Z,55.27
2016-11-21T00:11:33.190Z,55.27
2016-11-21T00:12:33.227Z,55.18
2016-11-21T00:13:33.254Z,55.27
2016-11-21T00:14:33.276Z,55.18
2016-11-21T00:15:33.001Z,54.88
2016-11-21T00:16:33.334Z,54.79
2016-11-21T00:17:33.367Z,54.79
2016-11-21T00:18:33.395Z,55.08
2016-11-21T00:19:33.112Z,54.98
2016-11-21T00:20:33.448Z,55.18
2016-11-21T00:21:33.482Z,55.18
2016-11-21T00:22:33.202Z,55.27
2016-11-21T00:23:33.535Z,55.36
2016-11-21T00:24:33.264Z,55.18
2016-11-21T00:25:33.601Z,55.18
2016-11-21T00:26:33.625Z,55.36
2016-11-21T00:27:33.646Z,55.36
2016-11-21T00:28:33.679Z,55.46
2016-11-21T00:29:33.699Z,55.36
2016-11-21T00:30:33.735Z,55.08
2016-11-21T00:31:33.760Z,55.36
2016-11-21T00:32:33.784Z,54.98
2016-11-21T00:33:33.809Z,54.88
2016-11-21T00:34:33.847Z,54.79
2016-11-21T00:35:33.567Z,54.98
2016-11-21T00:36:33.904Z,54.98
2016-11-21T00:37:33.933Z,54.79
2016-11-21T00:38:33.962Z,54.88
2016-11-21T00:39:33.992Z,55.18
2016-11-21T00:40:33.706Z,54.98
2016-11-21T00:41:33.732Z,55.08
2016-11-21T00:42:34.069Z,55.18
2016-11-21T00:43:34.097Z,55.08
2016-11-21T00:44:34.134Z,54.88
2016-11-21T00:45:34.158Z,54.98
2016-11-21T00:46:34.183Z,54.79
2016-11-21T00:47:34.206Z,54.88
2016-11-21T00:48:34.257Z,54.88
2016-11-21T00:49:34.262Z,54.6
2016-11-21T00:50:34.288Z,54.88
2016-11-21T00:51:34.319Z,54.5
2016-11-21T00:52:34.052Z,54.88
2016-11-21T00:53:34.381Z,54.79
2016-11-21T00:54:34.413Z,54.79
2016-11-21T00:55:34.137Z,54.6
2016-11-21T00:56:34.466Z,54.98
2016-11-21T00:57:34.192Z,54.4
2016-11-21T00:58:34.211Z,54.11
2016-11-21T00:59:34.549Z,54.02
2016-11-21T01:00:34.283Z,54.69
2016-11-21T01:01:34.611Z,54.4
2016-11-21T01:02:34.631Z,54.02
2016-11-21T01:03:34.664Z,54.21
2016-11-21T01:04:34.697Z,54.6
2016-11-21T01:05:34.729Z,54.4
2016-11-21T01:06:34.750Z,54.98
2016-11-21T01:07:34.775Z,54.6
2016-11-21T01:08:34.804Z,54.21
2016-11-21T01:09:34.524Z,54.5
2016-11-21T01:10:34.557Z,54.4
2016-11-21T01:11:34.894Z,54.4
2016-11-21T01:12:34.920Z,54.5
2016-11-21T01:13:34.672Z,54.69
2016-11-21T01:14:34.968Z,54.5
2016-11-21T01:15:35.001Z,54.6
2016-11-21T01:16:35.039Z,54.4
2016-11-21T01:17:34.755Z,54.31
2016-11-21T01:18:34.779Z,54.21
2016-11-21T01:19:35.112Z,54.21
2016-11-21T01:20:35.153Z,54.02
2016-11-21T01:21:34.869Z,54.21
2016-11-21T01:22:35.194Z,54.31
2016-11-21T01:23:35.221Z,54.5
2016-11-21T01:24:35.252Z,54.21
2016-11-21T01:25:35.300Z,54.5
2016-11-21T01:26:35.318Z,54.88
2016-11-21T01:27:35.346Z,54.88
2016-11-21T01:28:35.063Z,54.21
2016-11-21T01:29:35.403Z,54.31
2016-11-21T01:30:35.121Z,54.4
2016-11-21T01:31:35.143Z,53.92
2016-11-21T01:32:35.178Z,54.02
2016-11-21T01:33:35.203Z,54.4
2016-11-21T01:34:35.539Z,54.21
2016-11-21T01:35:35.572Z,54.21
2016-11-21T01:36:35.293Z,54.4
2016-11-21T01:37:35.318Z,55.08
2016-11-21T01:38:35.654Z,54.31
2016-11-21T01:39:35.375Z,54.02
2016-11-21T01:40:35.704Z,54.6
2016-11-21T01:41:35.736Z,54.69
2016-11-21T01:42:35.769Z,54.79
2016-11-21T01:43:35.826Z,54.88
2016-11-21T01:44:35.517Z,55.18
2016-11-21T01:45:35.847Z,54.69
2016-11-21T01:46:35.880Z,54.96
2016-11-21T01:47:35.905Z,54.66
2016-11-21T01:48:35.942Z,54.96
2016-11-21T01:49:35.664Z,54.69
2016-11-21T01:50:35.999Z,54.5
2016-11-21T01:51:36.012Z,54.57
2016-11-21T01:52:36.050Z,54.69
2016-11-21T01:53:35.761Z,54.88
2016-11-21T01:54:36.103Z,54.66
2016-11-21T01:55:36.134Z,54.57
2016-11-21T01:56:36.163Z,54.66
2016-11-21T01:57:36.189Z,54.88
2016-11-21T01:58:36.218Z,55.05
2016-11-21T01:59:36.242Z,54.88
2016-11-21T02:00:35.967Z,54.96
2016-11-21T02:01:36.300Z,54.79
2016-11-21T02:02:36.332Z,54.86
2016-11-21T02:03:36.361Z,54.88
2016-11-21T02:04:36.386Z,54.86
2016-11-21T02:05:36.415Z,54.88
2016-11-21T02:06:36.443Z,54.86
2016-11-21T02:07:36.171Z,54.5
2016-11-21T02:08:36.493Z,54.6
2016-11-21T02:09:36.537Z,54.86
2016-11-21T02:10:36.258Z,54.86
2016-11-21T02:11:36.575Z,55.18
2016-11-21T02:12:36.607Z,54.88
2016-11-21T02:13:36.636Z,54.79
2016-11-21T02:14:36.673Z,54.88
2016-11-21T02:15:36.702Z,54.79
2016-11-21T02:16:36.723Z,54.76
2016-11-21T02:17:36.447Z,54.79
2016-11-21T02:18:36.772Z,54.86
2016-11-21T02:19:36.809Z,54.47
2016-11-21T02:20:36.834Z,54.86
2016-11-21T02:21:36.858Z,54.86
2016-11-21T02:22:36.895Z,54.66
2016-11-21T02:23:36.920Z,55.05
2016-11-21T02:24:36.636Z,55.05
2016-11-21T02:25:36.982Z,55.15
2016-11-21T02:26:37.006Z,55.08
2016-11-21T02:27:37.029Z,54.86
2016-11-21T02:28:36.763Z,54.86
2016-11-21T02:29:37.088Z,54.86
2016-11-21T02:30:37.122Z,54.96
2016-11-21T02:31:37.146Z,55.08
2016-11-21T02:32:36.879Z,55.15
2016-11-21T02:33:36.895Z,55.05
2016-11-21T02:34:36.924Z,54.57
2016-11-21T02:35:37.256Z,54.86
2016-11-21T02:36:37.289Z,54.96
2016-11-21T02:37:37.014Z,54.76
2016-11-21T02:38:37.339Z,54.66
2016-11-21T02:39:37.068Z,54.66
2016-11-21T02:40:37.097Z,54.86
2016-11-21T02:41:37.422Z,54.86
2016-11-21T02:42:37.451Z,54.57
2016-11-21T02:43:37.179Z,54.57
2016-11-21T02:44:37.211Z,54.66
2016-11-21T02:45:37.546Z,54.76
2016-11-21T02:46:37.260Z,54.66
2016-11-21T02:47:37.594Z,54.47
2016-11-21T02:48:37.322Z,54.86
2016-11-21T02:49:37.347Z,54.76
2016-11-21T02:50:37.680Z,54.38
2016-11-21T02:51:37.399Z,54.76
2016-11-21T02:52:37.741Z,54.76
2016-11-21T02:53:37.770Z,54.76
2016-11-21T02:54:37.795Z,54.76
2016-11-21T02:55:37.515Z,54.57
2016-11-21T02:56:37.837Z,54.57
2016-11-21T02:57:37.882Z,54.76
2016-11-21T02:58:37.911Z,54.76
2016-11-21T02:59:37.938Z,54.57
2016-11-21T03:00:37.659Z,54.76
2016-11-21T03:01:37.987Z,54.76
2016-11-21T03:02:38.016Z,54.57
2016-11-21T03:03:38.053Z,54.76
2016-11-21T03:04:38.074Z,54.66
2016-11-21T03:05:38.098Z,54.57
2016-11-21T03:06:38.131Z,54.96
2016-11-21T03:07:38.164Z,54.66
2016-11-21T03:08:38.188Z,54.76
2016-11-21T03:09:38.217Z,54.96
2016-11-21T03:10:38.241Z,54.96
2016-11-21T03:11:38.279Z,54.86
2016-11-21T03:12:38.308Z,54.96
2016-11-21T03:13:38.333Z,54.86
2016-11-21T03:14:38.350Z,54.86
2016-11-21T03:15:38.376Z,54.76
2016-11-21T03:16:38.414Z,54.76
2016-11-21T03:17:38.439Z,54.57
2016-11-21T03:18:38.168Z,54.66
2016-11-21T03:19:38.489Z,54.96
2016-11-21T03:20:38.520Z,54.79
2016-11-21T03:21:38.557Z,54.86
2016-11-21T03:22:38.579Z,55.05
2016-11-21T03:23:38.610Z,54.76
2016-11-21T03:24:38.331Z,54.96
2016-11-21T03:25:38.675Z,54.66
2016-11-21T03:26:38.385Z,54.86
2016-11-21T03:27:38.718Z,55.05
2016-11-21T03:28:38.443Z,54.86
2016-11-21T03:29:38.463Z,54.86
2016-11-21T03:30:38.800Z,54.57
2016-11-21T03:31:38.530Z,54.76
2016-11-21T03:32:38.861Z,54.76
2016-11-21T03:33:38.885Z,54.88
2016-11-21T03:34:38.915Z,54.57
2016-11-21T03:35:38.943Z,54.38
2016-11-21T03:36:38.972Z,54.47
2016-11-21T03:37:39.005Z,54.47
2016-11-21T03:38:38.726Z,54.38
2016-11-21T03:39:39.057Z,53.99
2016-11-21T03:40:38.787Z,54.09
2016-11-21T03:41:39.108Z,54.47
2016-11-21T03:42:39.140Z,54.18
2016-11-21T03:43:39.168Z,54.38
2016-11-21T03:44:38.899Z,54.38
2016-11-21T03:45:39.214Z,54.57
2016-11-21T03:46:39.248Z,54.47
2016-11-21T03:47:39.289Z,54.18
2016-11-21T03:48:39.010Z,54.47
2016-11-21T03:49:39.338Z,54.38
2016-11-21T03:50:39.362Z,54.18
2016-11-21T03:51:39.391Z,54.18
2016-11-21T03:52:39.415Z,54.18
2016-11-21T03:53:39.140Z,54.18
2016-11-21T03:54:39.478Z,54.38
2016-11-21T03:55:39.502Z,54.28
2016-11-21T03:56:39.527Z,54.66
2016-11-21T03:57:39.568Z,54.28
2016-11-21T03:58:39.594Z,54.28
2016-11-21T03:59:39.614Z,54.28
2016-11-21T04:00:39.647Z,54.38
2016-11-21T04:01:39.366Z,54.28
2016-11-21T04:02:39.704Z,54.28
2016-11-21T04:03:39.732Z,54.47
2016-11-21T04:04:39.457Z,54.38
2016-11-21T04:05:39.785Z,54.57
2016-11-21T04:06:39.818Z,54.28
2016-11-21T04:07:39.843Z,54.47
2016-11-21T04:08:39.878Z,54.47
2016-11-21T04:09:39.592Z,54.47
2016-11-21T04:10:39.920Z,54.38
2016-11-21T04:11:39.953Z,54.38
2016-11-21T04:12:39.670Z,54.47
2016-11-21T04:13:39.707Z,54.28
2016-11-21T04:14:39.731Z,54.38
2016-11-21T04:15:40.060Z,54.47
2016-11-21T04:16:40.097Z,54.38
2016-11-21T04:17:40.127Z,54.38
2016-11-21T04:18:39.847Z,54.28
2016-11-21T04:19:40.174Z,54.47
2016-11-21T04:20:39.895Z,54.38
2016-11-21T04:21:39.933Z,54.47
2016-11-21T04:22:39.965Z,54.57
2016-11-21T04:23:40.290Z,54.47
2016-11-21T04:24:40.014Z,54.47
2016-11-21T04:25:40.051Z,54.47
2016-11-21T04:26:40.376Z,54.47
2016-11-21T04:27:40.401Z,54.57
2016-11-21T04:28:40.434Z,54.66
2016-11-21T04:29:40.450Z,54.18
2016-11-21T04:30:40.490Z,54.28
2016-11-21T04:31:40.515Z,54.86
2016-11-21T04:32:40.232Z,54.18
2016-11-21T04:33:40.574Z,54.18
2016-11-21T04:34:40.598Z,54.18
2016-11-21T04:35:40.622Z,53.89
2016-11-21T04:36:40.659Z,54.09
2016-11-21T04:37:40.680Z,54.18
2016-11-21T04:38:40.404Z,54.76
2016-11-21T04:39:40.741Z,54.09
2016-11-21T04:40:40.762Z,53.89
2016-11-21T04:41:40.794Z,53.89
2016-11-21T04:42:40.815Z,53.99
2016-11-21T04:43:40.850Z,53.89
2016-11-21T04:44:40.572Z,53.99
2016-11-21T04:45:40.597Z,53.8
2016-11-21T04:46:40.934Z,53.8
2016-11-21T04:47:40.650Z,54.38
2016-11-21T04:48:40.988Z,54.38
2016-11-21T04:49:41.024Z,54.28
2016-11-21T04:50:40.749Z,54.38
2016-11-21T04:51:41.070Z,54.18
2016-11-21T04:52:40.805Z,54.18
2016-11-21T04:53:41.126Z,54.18
2016-11-21T04:54:41.156Z,53.8
2016-11-21T04:55:41.184Z,54.18
2016-11-21T04:56:40.905Z,54.18
2016-11-21T04:57:41.235Z,54.28
2016-11-21T04:58:41.263Z,54.18
2016-11-21T04:59:41.283Z,54.38
2016-11-21T05:00:41.328Z,54.28
2016-11-21T05:01:41.075Z,54.38
2016-11-21T05:02:41.077Z,54.28
2016-11-21T05:03:41.098Z,53.99
2016-11-21T05:04:41.443Z,54.38
2016-11-21T05:05:41.464Z,54.28
2016-11-21T05:06:41.184Z,54.38
2016-11-21T05:07:41.521Z,54.38
2016-11-21T05:08:41.545Z,54.09
2016-11-21T05:09:41.582Z,54.18
2016-11-21T05:10:41.603Z,54.47
2016-11-21T05:11:41.328Z,53.89
2016-11-21T05:12:41.360Z,53.89
2016-11-21T05:13:41.377Z,53.89
2016-11-21T05:14:41.409Z,53.89
2016-11-21T05:15:41.439Z,53.99
2016-11-21T05:16:41.779Z,53.89
2016-11-21T05:17:41.809Z,53.99
2016-11-21T05:18:41.828Z,53.99
2016-11-21T05:19:41.545Z,53.99
2016-11-21T05:20:41.881Z,53.89
2016-11-21T05:21:41.604Z,53.8
2016-11-21T05:22:41.934Z,54.18
2016-11-21T05:23:41.968Z,54.38
2016-11-21T05:24:41.992Z,54.38
2016-11-21T05:25:42.025Z,53.89
2016-11-21T05:26:42.064Z,54.18
2016-11-21T05:27:42.083Z,54.18
2016-11-21T05:28:42.108Z,54.76
2016-11-21T05:29:42.133Z,54.18
2016-11-21T05:30:42.169Z,53.89
2016-11-21T05:31:42.189Z,54.38
2016-11-21T05:32:42.231Z,54.18
2016-11-21T05:33:42.243Z,54.18
2016-11-21T05:34:42.278Z,54.18
2016-11-21T05:35:42.308Z,54.09
2016-11-21T05:36:42.328Z,54.38
2016-11-21T05:37:42.360Z,54.38
2016-11-21T05:38:42.066Z,54.18
2016-11-21T05:39:42.419Z,53.89
2016-11-21T05:40:42.440Z,53.8
2016-11-21T05:41:42.469Z,53.89
2016-11-21T05:42:42.494Z,53.8
2016-11-21T05:43:42.231Z,54.09
2016-11-21T05:44:42.546Z,53.8
2016-11-21T05:45:42.588Z,53.89
2016-11-21T05:46:42.600Z,53.89
2016-11-21T05:47:42.636Z,53.31
2016-11-21T05:48:42.686Z,53.8
2016-11-21T05:49:42.382Z,53.7
2016-11-21T05:50:42.420Z,53.51
2016-11-21T05:51:42.748Z,53.51
2016-11-21T05:52:42.804Z,53.22
2016-11-21T05:53:42.809Z,53.61
2016-11-21T05:54:42.838Z,53.51
2016-11-21T05:55:42.559Z,53.51
2016-11-21T05:56:42.595Z,53.51
2016-11-21T05:57:42.624Z,53.63
2016-11-21T05:58:42.649Z,53.61
2016-11-21T05:59:42.970Z,53.89
2016-11-21T06:00:42.994Z,53.8
2016-11-21T06:01:42.723Z,53.34
2016-11-21T06:02:43.078Z,53.51
2016-11-21T06:03:43.112Z,53.44
2016-11-21T06:04:43.112Z,53.25
2016-11-21T06:05:43.137Z,52.93
2016-11-21T06:06:43.158Z,52.95
2016-11-21T06:07:43.195Z,52.95
2016-11-21T06:08:43.220Z,53.15
2016-11-21T06:09:43.245Z,52.76
2016-11-21T06:10:43.277Z,53.15
2016-11-21T06:11:43.306Z,53.05
2016-11-21T06:12:43.338Z,52.95
2016-11-21T06:13:43.375Z,53.05
2016-11-21T06:14:43.394Z,53.15
2016-11-21T06:15:43.425Z,53.05
2016-11-21T06:16:43.450Z,52.86
2016-11-21T06:17:43.471Z,53.15
2016-11-21T06:18:43.503Z,53.15
2016-11-21T06:19:43.544Z,53.15
2016-11-21T06:20:43.256Z,53.15
2016-11-21T06:21:43.586Z,53.05
2016-11-21T06:22:43.614Z,52.95
2016-11-21T06:23:43.638Z,53.05
2016-11-21T06:24:43.678Z,52.95
2016-11-21T06:25:43.697Z,53.05
2016-11-21T06:26:43.725Z,53.05
2016-11-21T06:27:43.749Z,52.95
2016-11-21T06:28:43.795Z,52.86
2016-11-21T06:29:43.811Z,53.08
2016-11-21T06:30:43.847Z,52.86
2016-11-21T06:31:43.871Z,53.25
2016-11-21T06:32:43.901Z,53.47
2016-11-21T06:33:43.922Z,53.08
2016-11-21T06:34:43.955Z,53.37
2016-11-21T06:35:43.980Z,53.25
2016-11-21T06:36:44.012Z,53.17
2016-11-21T06:37:44.041Z,53.17
2016-11-21T06:38:43.769Z,52.89
2016-11-21T06:39:44.091Z,53.17
2016-11-21T06:40:44.123Z,53.85
2016-11-21T06:41:44.148Z,53.95
2016-11-21T06:42:44.181Z,53.85
2016-11-21T06:43:43.906Z,53.75
2016-11-21T06:44:44.239Z,53.75
2016-11-21T06:45:44.271Z,53.75
2016-11-21T06:46:44.292Z,53.75
2016-11-21T06:47:44.324Z,53.66
2016-11-21T06:48:44.346Z,53.75
2016-11-21T06:49:44.374Z,53.75
2016-11-21T06:50:44.403Z,53.66
2016-11-21T06:51:44.439Z,53.47
2016-11-21T06:52:44.463Z,53.56
2016-11-21T06:53:44.189Z,53.56
2016-11-21T06:54:44.517Z,53.66
2016-11-21T06:55:44.545Z,53.66
2016-11-21T06:56:44.587Z,53.56
2016-11-21T06:57:44.600Z,53.66
2016-11-21T06:58:44.325Z,53.66
2016-11-21T06:59:44.670Z,53.56
2016-11-21T07:00:44.688Z,53.85
2016-11-21T07:01:44.715Z,53.85
2016-11-21T07:02:44.751Z,53.37
2016-11-21T07:03:44.776Z,53.56
2016-11-21T07:04:44.805Z,53.56
2016-11-21T07:05:44.829Z,53.37
2016-11-21T07:06:44.554Z,53.17
2016-11-21T07:07:44.887Z,52.98
2016-11-21T07:08:44.915Z,52.89
2016-11-21T07:09:44.939Z,52.89
2016-11-21T07:10:44.978Z,52.98
2016-11-21T07:11:45.018Z,52.98
2016-11-21T07:12:45.024Z,53.08
2016-11-21T07:13:45.060Z,52.79
2016-11-21T07:14:45.092Z,53.17
2016-11-21T07:15:45.113Z,52.98
2016-11-21T07:16:45.154Z,52.98
2016-11-21T07:17:45.175Z,53.17
2016-11-21T07:18:45.199Z,53.37
2016-11-21T07:19:45.227Z,53.37
2016-11-21T07:20:45.252Z,53.37
2016-11-21T07:21:45.284Z,53.08
2016-11-21T07:22:45.313Z,53.08
2016-11-21T07:23:45.044Z,52.89
2016-11-21T07:24:45.371Z,53.17
2016-11-21T07:25:45.408Z,53.17
2016-11-21T07:26:45.428Z,53.08
2016-11-21T07:27:45.153Z,53.08
2016-11-21T07:28:45.487Z,53.17
2016-11-21T07:29:45.211Z,53.17
2016-11-21T07:30:45.235Z,52.79
2016-11-21T07:31:45.264Z,52.69
2016-11-21T07:32:45.324Z,52.98
2016-11-21T07:33:45.326Z,52.79
2016-11-21T07:34:45.646Z,52.89
2016-11-21T07:35:45.692Z,52.69
2016-11-21T07:36:45.409Z,52.79
2016-11-21T07:37:45.441Z,52.69
2016-11-21T07:38:45.762Z,52.69
2016-11-21T07:39:45.803Z,52.69
2016-11-21T07:40:45.831Z,52.59
2016-11-21T07:41:45.849Z,52.69
2016-11-21T07:42:45.888Z,52.69
2016-11-21T07:43:45.915Z,52.69
2016-11-21T07:44:45.646Z,52.69
2016-11-21T07:45:45.971Z,52.59
2016-11-21T07:46:45.996Z,52.69
2016-11-21T07:47:46.021Z,52.79
2016-11-21T07:48:45.740Z,53.08
2016-11-21T07:49:46.077Z,52.98
2016-11-21T07:50:45.810Z,52.89
2016-11-21T07:51:46.138Z,52.89
2016-11-21T07:52:46.171Z,52.79
2016-11-21T07:53:46.200Z,52.89
2016-11-21T07:54:46.226Z,52.79
2016-11-21T07:55:45.945Z,52.79
2016-11-21T07:56:46.280Z,52.69
2016-11-21T07:57:46.309Z,52.21
2016-11-21T07:58:46.340Z,52.89
2016-11-21T07:59:46.094Z,52.11
2016-11-21T08:00:46.393Z,52.59
2016-11-21T08:01:46.426Z,52.11
2016-11-21T08:02:46.447Z,52.4
2016-11-21T08:03:46.176Z,52.69
2016-11-21T08:04:46.204Z,52.79
2016-11-21T08:05:46.537Z,52.79
2016-11-21T08:06:46.263Z,52.79
2016-11-21T08:07:46.286Z,52.79
2016-11-21T08:08:46.623Z,52.89
2016-11-21T08:09:46.344Z,52.79
2016-11-21T08:10:46.681Z,52.89
2016-11-21T08:11:46.403Z,53.08
2016-11-21T08:12:46.734Z,52.89
2016-11-21T08:13:46.761Z,52.89
2016-11-21T08:14:46.483Z,52.98
2016-11-21T08:15:46.520Z,52.69
2016-11-21T08:16:46.846Z,52.79
2016-11-21T08:17:46.882Z,52.59
2016-11-21T08:18:46.919Z,52.5
2016-11-21T08:19:46.944Z,52.59
2016-11-21T08:20:46.970Z,52.69
2016-11-21T08:21:46.988Z,52.59
2016-11-21T08:22:47.019Z,52.59
2016-11-21T08:23:47.046Z,52.5
2016-11-21T08:24:47.079Z,52.59
2016-11-21T08:25:47.103Z,52.69
2016-11-21T08:26:46.824Z,52.4
2016-11-21T08:27:47.165Z,52.69
2016-11-21T08:28:47.186Z,52.5
2016-11-21T08:29:46.915Z,52.59
2016-11-21T08:30:47.243Z,52.59
2016-11-21T08:31:47.272Z,52.69
2016-11-21T08:32:47.300Z,52.57
2016-11-21T08:33:47.330Z,52.69
2016-11-21T08:34:47.363Z,52.59
2016-11-21T08:35:47.383Z,52.79
2016-11-21T08:36:47.416Z,52.79
2016-11-21T08:37:47.453Z,52.47
2016-11-21T08:38:47.482Z,52.69
2016-11-21T08:39:47.502Z,52.89
2016-11-21T08:40:47.235Z,52.89
2016-11-21T08:41:47.568Z,52.57
2016-11-21T08:42:47.280Z,52.79
2016-11-21T08:43:47.613Z,52.67
2016-11-21T08:44:47.342Z,52.67
2016-11-21T08:45:47.668Z,52.76
2016-11-21T08:46:47.701Z,52.67
2016-11-21T08:47:47.424Z,52.76
2016-11-21T08:48:47.757Z,52.76
2016-11-21T08:49:47.482Z,52.86
2016-11-21T08:50:47.807Z,52.57
2016-11-21T08:51:47.839Z,52.67
2016-11-21T08:52:47.876Z,52.76
2016-11-21T08:53:47.905Z,52.86
2016-11-21T08:54:47.625Z,52.57
2016-11-21T08:55:47.646Z,52.67
2016-11-21T08:56:47.982Z,52.86
2016-11-21T08:57:48.017Z,52.57
2016-11-21T08:58:48.037Z,52.76
2016-11-21T08:59:48.070Z,52.86
2016-11-21T09:00:48.103Z,52.86
2016-11-21T09:01:48.131Z,52.86
2016-11-21T09:02:48.156Z,52.86
2016-11-21T09:03:47.876Z,52.67
2016-11-21T09:04:48.217Z,52.76
2016-11-21T09:05:48.248Z,53.25
2016-11-21T09:06:47.957Z,52.67
2016-11-21T09:07:48.295Z,52.57
2016-11-21T09:08:48.324Z,53.25
2016-11-21T09:09:48.356Z,52.67
2016-11-21T09:10:48.384Z,52.76
2016-11-21T09:11:48.102Z,53.34
2016-11-21T09:12:48.439Z,53.34
2016-11-21T09:13:48.463Z,52.67
2016-11-21T09:14:48.493Z,53.34
2016-11-21T09:15:48.521Z,52.67
2016-11-21T09:16:48.553Z,52.86
2016-11-21T09:17:48.283Z,52.57
2016-11-21T09:18:48.608Z,52.76
2016-11-21T09:19:48.628Z,52.67
2016-11-21T09:20:48.669Z,52.76
2016-11-21T09:21:48.685Z,51.8
2016-11-21T09:22:48.718Z,52.76
2016-11-21T09:23:48.747Z,52.76
2016-11-21T09:24:48.771Z,52.86
2016-11-21T09:25:48.804Z,52.57
2016-11-21T09:26:48.533Z,51.7
2016-11-21T09:27:48.866Z,51.7
2016-11-21T09:28:48.894Z,51.1
2016-11-21T09:29:48.911Z,51.97
2016-11-21T09:30:48.944Z,52.06
2016-11-21T09:31:48.972Z,52.55
2016-11-21T09:32:49.001Z,52.45
2016-11-21T09:33:49.029Z,53.03
2016-11-21T09:34:49.050Z,52.93
2016-11-21T09:35:49.087Z,52.73
2016-11-21T09:36:49.103Z,52.73
2016-11-21T09:37:48.837Z,52.16
2016-11-21T09:38:49.166Z,52.45
2016-11-21T09:39:48.892Z,51.97
2016-11-21T09:40:49.222Z,52.06
2016-11-21T09:41:49.251Z,52.06
2016-11-21T09:42:49.269Z,52.25
2016-11-21T09:43:49.305Z,52.25
2016-11-21T09:44:49.342Z,52.06
2016-11-21T09:45:49.374Z,52.28
2016-11-21T09:46:49.391Z,52.06
2016-11-21T09:47:49.419Z,51.77
2016-11-21T09:48:49.452Z,51.68
2016-11-21T09:49:49.472Z,51.77
2016-11-21T09:50:49.506Z,51.89
2016-11-21T09:51:49.530Z,51.8
2016-11-21T09:52:49.563Z,51.7
2016-11-21T09:53:49.583Z,51.61
2016-11-21T09:54:49.628Z,51.51
2016-11-21T09:55:50.305Z,51.48
2016-11-21T09:56:49.666Z,51.77
2016-11-21T09:57:49.419Z,51.68
2016-11-21T09:58:49.731Z,51.7
2016-11-21T09:59:49.456Z,51.39
2016-11-21T10:00:49.488Z,51.87
2016-11-21T10:01:49.506Z,51.89
2016-11-21T10:02:49.834Z,52.06
2016-11-21T10:03:49.867Z,51.87
2016-11-21T10:04:49.900Z,51.58
2016-11-21T10:05:49.924Z,51.68
2016-11-21T10:06:49.949Z,51.99
2016-11-21T10:07:49.977Z,51.61
2016-11-21T10:08:49.702Z,51.51
2016-11-21T10:09:49.727Z,51.8
2016-11-21T10:10:50.055Z,51.51
2016-11-21T10:11:50.096Z,51.8
2016-11-21T10:12:49.817Z,51.58
2016-11-21T10:13:50.141Z,51.68
2016-11-21T10:14:50.171Z,51.77
2016-11-21T10:15:50.196Z,51.7
2016-11-21T10:16:50.235Z,51.68
2016-11-21T10:17:50.252Z,51.8
2016-11-21T10:18:50.289Z,51.68
2016-11-21T10:19:50.322Z,52.09
2016-11-21T10:20:50.346Z,52.09
2016-11-21T10:21:50.375Z,51.89
2016-11-21T10:22:50.410Z,52.06
2016-11-21T10:23:50.429Z,52.25
2016-11-21T10:24:50.453Z,52.09
2016-11-21T10:25:50.491Z,52.19
2016-11-21T10:26:50.215Z,52.19
2016-11-21T10:27:50.544Z,52.09
2016-11-21T10:28:50.568Z,52.19
2016-11-21T10:29:50.593Z,52.06
2016-11-21T10:30:50.626Z,52.28
2016-11-21T10:31:50.659Z,52.35
2016-11-21T10:32:50.688Z,52.28
2016-11-21T10:33:50.403Z,52.16
2016-11-21T10:34:50.736Z,52.19
2016-11-21T10:35:50.766Z,52.06
2016-11-21T10:36:50.790Z,52.19
2016-11-21T10:37:50.828Z,52.19
2016-11-21T10:38:50.860Z,52.35
2016-11-21T10:39:50.884Z,52.28
2016-11-21T10:40:50.613Z,52.19
2016-11-21T10:41:50.634Z,52.28
2016-11-21T10:42:50.966Z,52.19
2016-11-21T10:43:50.995Z,52.09
2016-11-21T10:44:50.719Z,52.16
2016-11-21T10:45:50.742Z,52.06
2016-11-21T10:46:51.081Z,52.16
2016-11-21T10:47:50.808Z,52.19
2016-11-21T10:48:51.131Z,52.06
2016-11-21T10:49:50.860Z,52.09
2016-11-21T10:50:50.884Z,52.16
2016-11-21T10:51:51.226Z,52.16
2016-11-21T10:52:51.249Z,52.19
2016-11-21T10:53:50.962Z,52.35
2016-11-21T10:54:50.999Z,52.35
2016-11-21T10:55:51.337Z,52.06
2016-11-21T10:56:51.356Z,52.06
2016-11-21T10:57:51.081Z,52.06
2016-11-21T10:58:51.414Z,52.16
2016-11-21T10:59:51.438Z,52.25
2016-11-21T11:00:51.467Z,53.15
2016-11-21T11:01:51.504Z,53.8
2016-11-21T11:02:51.533Z,53.73
2016-11-21T11:03:51.249Z,52.47
2016-11-21T11:04:51.274Z,51.99
2016-11-21T11:05:51.619Z,52.19
2016-11-21T11:06:51.643Z,52.19
2016-11-21T11:07:51.672Z,52.19
2016-11-21T11:08:51.397Z,52.19
2016-11-21T11:09:51.418Z,52.47
2016-11-21T11:10:51.749Z,52.28
2016-11-21T11:11:51.770Z,52.37
2016-11-21T11:12:51.508Z,52.16
2016-11-21T11:13:51.845Z,52.16
2016-11-21T11:14:51.865Z,52.37
2016-11-21T11:15:51.894Z,52.19
2016-11-21T11:16:51.927Z,52.09
2016-11-21T11:17:51.947Z,52.19
2016-11-21T11:18:51.980Z,52.19
2016-11-21T11:19:52.006Z,52.37
2016-11-21T11:20:51.725Z,52.19
2016-11-21T11:21:52.062Z,52.16
2016-11-21T11:22:52.095Z,52.19
2016-11-21T11:23:52.121Z,52.16
2016-11-21T11:24:51.841Z,51.97
2016-11-21T11:25:52.173Z,51.99
2016-11-21T11:26:52.198Z,52.06
2016-11-21T11:27:52.227Z,52.19
2016-11-21T11:28:52.251Z,52.19
2016-11-21T11:29:52.289Z,52.06
2016-11-21T11:30:52.313Z,52.16
2016-11-21T11:31:52.042Z,52.19
2016-11-21T11:32:52.070Z,52.19
2016-11-21T11:33:52.403Z,52.19
2016-11-21T11:34:52.436Z,52.35
2016-11-21T11:35:52.149Z,52.45
2016-11-21T11:36:52.485Z,52.16
2016-11-21T11:37:52.210Z,51.99
2016-11-21T11:38:52.551Z,52.16
2016-11-21T11:39:52.567Z,52.16
2016-11-21T11:40:52.592Z,52.16
2016-11-21T11:41:52.625Z,52.06
2016-11-21T11:42:52.653Z,51.97
2016-11-21T11:43:52.374Z,52.25
2016-11-21T11:44:52.432Z,52.35
2016-11-21T11:45:52.736Z,51.97
2016-11-21T11:46:52.463Z,51.97
2016-11-21T11:47:52.786Z,52.25
2016-11-21T11:48:52.819Z,52.16
2016-11-21T11:49:52.851Z,52.35
2016-11-21T11:50:52.876Z,52.06
2016-11-21T11:51:52.896Z,52.28
2016-11-21T11:52:52.934Z,52.06
2016-11-21T11:53:52.957Z,52.16
2016-11-21T11:54:52.994Z,52.16
2016-11-21T11:55:53.010Z,52.28
2016-11-21T11:56:53.040Z,52.06
2016-11-21T11:57:53.068Z,52.06
2016-11-21T11:58:53.098Z,52.16
2016-11-21T11:59:53.130Z,52.64
2016-11-21T12:00:53.155Z,52.83
2016-11-21T12:01:53.239Z,52.73
2016-11-21T12:02:52.908Z,52.73
2016-11-21T12:03:53.245Z,52.55
2016-11-21T12:04:53.269Z,52.73
2016-11-21T12:05:53.298Z,53.03
2016-11-21T12:06:53.327Z,52.64
2016-11-21T12:07:53.352Z,52.45
2016-11-21T12:08:53.381Z,52.64
2016-11-21T12:09:53.412Z,52.64
2016-11-21T12:10:53.437Z,52.93
2016-11-21T12:11:53.474Z,52.55
2016-11-21T12:12:53.490Z,52.83
2016-11-21T12:13:53.524Z,52.55
2016-11-21T12:14:53.552Z,52.55
2016-11-21T12:15:53.577Z,52.55
2016-11-21T12:16:53.599Z,53.25
2016-11-21T12:17:53.335Z,52.73
2016-11-21T12:18:53.360Z,52.83
2016-11-21T12:19:53.384Z,52.55
2016-11-21T12:20:53.717Z,52.55
2016-11-21T12:21:53.750Z,52.73
2016-11-21T12:22:53.476Z,52.55
2016-11-21T12:23:53.807Z,52.83
2016-11-21T12:24:53.539Z,52.73
2016-11-21T12:25:53.861Z,52.64
2016-11-21T12:26:53.586Z,52.64
2016-11-21T12:27:53.611Z,53.31
2016-11-21T12:28:53.947Z,52.73
2016-11-21T12:29:53.976Z,52.64
2016-11-21T12:30:54.004Z,52.73
2016-11-21T12:31:54.029Z,52.73
2016-11-21T12:32:54.058Z,52.64
2016-11-21T12:33:53.782Z,52.83
2016-11-21T12:34:53.803Z,52.76
2016-11-21T12:35:53.836Z,51.87
2016-11-21T12:36:54.205Z,52.25
2016-11-21T12:37:53.893Z,52.64
2016-11-21T12:38:53.918Z,52.16
2016-11-21T12:39:54.254Z,53.13
2016-11-21T12:40:54.286Z,53.41
2016-11-21T12:41:54.316Z,52.93
2016-11-21T12:42:54.341Z,53.03
2016-11-21T12:43:54.361Z,53.61
2016-11-21T12:44:54.082Z,53.89
2016-11-21T12:45:54.427Z,53.89
2016-11-21T12:46:54.140Z,53.61
2016-11-21T12:47:54.484Z,53.61
2016-11-21T12:48:54.505Z,53.8
2016-11-21T12:49:54.526Z,53.89
2016-11-21T12:50:54.563Z,53.31
2016-11-21T12:51:54.287Z,53.89
2016-11-21T12:52:54.612Z,53.8
2016-11-21T12:53:54.657Z,52.45
2016-11-21T12:54:54.365Z,53.51